sensor_id;sensor_type;location;lat;lon;timestamp;P1;durP1;ratioP1;P2;durP2;ratioP2
47635;SDS011;33364;50.766;15.338;2022-11-14T00:00:39;11.32;;;5.85;;
47635;SDS011;33364;50.766;15.338;2022-11-14T00:03:11;8.63;;;4.90;;
47635;SDS011;33364;50.766;15.338;2022-11-14T00:05:37;8.18;;;3.90;;
47635;SDS011;33364;50.766;15.338;2022-11-14T00:08:13;6.57;;;3.55;;
47635;SDS011;33364;50.766;15.338;2022-11-14T00:10:39;9.93;;;4.95;;
47635;SDS011;33364;50.766;15.338;2022-11-14T00:13:04;10.98;;;5.43;;
47635;SDS011;33364;50.766;15.338;2022-11-14T00:15:30;8.23;;;4.78;;
47635;SDS011;33364;50.766;15.338;2022-11-14T00:17:56;9.77;;;5.72;;
47635;SDS011;33364;50.766;15.338;2022-11-14T00:20:21;8.48;;;4.50;;
47635;SDS011;33364;50.766;15.338;2022-11-14T00:22:47;7.93;;;3.88;;
47635;SDS011;33364;50.766;15.338;2022-11-14T00:25:12;9.40;;;5.20;;
47635;SDS011;33364;50.766;15.338;2022-11-14T00:27:38;8.95;;;5.47;;
47635;SDS011;33364;50.766;15.338;2022-11-14T00:30:04;11.90;;;5.93;;
47635;SDS011;33364;50.766;15.338;2022-11-14T00:32:30;19.10;;;9.80;;
47635;SDS011;33364;50.766;15.338;2022-11-14T00:34:55;9.65;;;5.35;;
47635;SDS011;33364;50.766;15.338;2022-11-14T00:37:21;13.63;;;6.93;;
47635;SDS011;33364;50.766;15.338;2022-11-14T00:39:46;11.63;;;6.30;;
47635;SDS011;33364;50.766;15.338;2022-11-14T00:42:12;9.85;;;5.70;;
47635;SDS011;33364;50.766;15.338;2022-11-14T00:44:38;9.38;;;6.03;;
47635;SDS011;33364;50.766;15.338;2022-11-14T00:47:03;10.40;;;5.95;;
47635;SDS011;33364;50.766;15.338;2022-11-14T00:49:29;9.32;;;5.47;;
47635;SDS011;33364;50.766;15.338;2022-11-14T00:51:54;9.43;;;5.30;;
47635;SDS011;33364;50.766;15.338;2022-11-14T00:54:20;10.98;;;5.70;;
47635;SDS011;33364;50.766;15.338;2022-11-14T00:56:46;11.23;;;6.50;;
47635;SDS011;33364;50.766;15.338;2022-11-14T00:59:11;9.05;;;5.55;;
47635;SDS011;33364;50.766;15.338;2022-11-14T01:01:37;9.20;;;5.85;;
47635;SDS011;33364;50.766;15.338;2022-11-14T01:04:03;8.25;;;5.57;;
47635;SDS011;33364;50.766;15.338;2022-11-14T01:06:28;8.80;;;5.10;;
47635;SDS011;33364;50.766;15.338;2022-11-14T01:08:54;8.63;;;5.13;;
47635;SDS011;33364;50.766;15.338;2022-11-14T01:11:20;9.07;;;4.70;;
47635;SDS011;33364;50.766;15.338;2022-11-14T01:13:47;9.05;;;6.15;;
47635;SDS011;33364;50.766;15.338;2022-11-14T01:16:12;8.02;;;5.07;;
47635;SDS011;33364;50.766;15.338;2022-11-14T01:18:39;9.50;;;5.20;;
47635;SDS011;33364;50.766;15.338;2022-11-14T01:21:06;9.15;;;5.15;;
47635;SDS011;33364;50.766;15.338;2022-11-14T01:23:33;10.43;;;5.80;;
47635;SDS011;33364;50.766;15.338;2022-11-14T01:26:00;10.38;;;6.43;;
47635;SDS011;33364;50.766;15.338;2022-11-14T01:28:31;10.35;;;6.20;;
47635;SDS011;33364;50.766;15.338;2022-11-14T01:31:06;9.00;;;6.03;;
47635;SDS011;33364;50.766;15.338;2022-11-14T01:33:36;10.40;;;6.00;;
47635;SDS011;33364;50.766;15.338;2022-11-14T01:36:02;8.00;;;5.78;;
47635;SDS011;33364;50.766;15.338;2022-11-14T01:38:27;11.38;;;5.75;;
47635;SDS011;33364;50.766;15.338;2022-11-14T01:40:53;10.15;;;5.97;;
47635;SDS011;33364;50.766;15.338;2022-11-14T01:45:56;9.63;;;4.68;;
47635;SDS011;33364;50.766;15.338;2022-11-14T01:48:25;30.08;;;12.38;;
47635;SDS011;33364;50.766;15.338;2022-11-14T01:53:37;11.73;;;6.05;;
47635;SDS011;33364;50.766;15.338;2022-11-14T01:56:03;8.07;;;4.90;;
47635;SDS011;33364;50.766;15.338;2022-11-14T01:58:33;9.55;;;6.20;;
47635;SDS011;33364;50.766;15.338;2022-11-14T02:01:01;9.55;;;6.00;;
47635;SDS011;33364;50.766;15.338;2022-11-14T02:03:27;7.20;;;4.68;;
47635;SDS011;33364;50.766;15.338;2022-11-14T02:05:53;8.15;;;5.13;;
47635;SDS011;33364;50.766;15.338;2022-11-14T02:08:19;9.70;;;5.82;;
47635;SDS011;33364;50.766;15.338;2022-11-14T02:10:45;10.35;;;5.85;;
47635;SDS011;33364;50.766;15.338;2022-11-14T02:13:11;11.60;;;6.22;;
47635;SDS011;33364;50.766;15.338;2022-11-14T02:15:37;6.30;;;4.25;;
47635;SDS011;33364;50.766;15.338;2022-11-14T02:18:04;8.35;;;5.25;;
47635;SDS011;33364;50.766;15.338;2022-11-14T02:20:32;9.40;;;6.00;;
47635;SDS011;33364;50.766;15.338;2022-11-14T02:23:01;9.07;;;5.63;;
47635;SDS011;33364;50.766;15.338;2022-11-14T02:25:26;10.65;;;5.38;;
47635;SDS011;33364;50.766;15.338;2022-11-14T02:27:53;9.25;;;6.45;;
47635;SDS011;33364;50.766;15.338;2022-11-14T02:30:21;9.05;;;5.50;;
47635;SDS011;33364;50.766;15.338;2022-11-14T02:32:47;8.93;;;6.03;;
47635;SDS011;33364;50.766;15.338;2022-11-14T02:35:13;10.77;;;5.57;;
47635;SDS011;33364;50.766;15.338;2022-11-14T02:37:39;13.57;;;6.05;;
47635;SDS011;33364;50.766;15.338;2022-11-14T02:40:05;9.95;;;5.28;;
47635;SDS011;33364;50.766;15.338;2022-11-14T02:42:31;8.90;;;5.05;;
47635;SDS011;33364;50.766;15.338;2022-11-14T02:44:57;7.72;;;5.38;;
47635;SDS011;33364;50.766;15.338;2022-11-14T02:47:22;8.57;;;5.75;;
47635;SDS011;33364;50.766;15.338;2022-11-14T02:49:51;8.70;;;5.97;;
47635;SDS011;33364;50.766;15.338;2022-11-14T02:52:17;8.65;;;5.43;;
47635;SDS011;33364;50.766;15.338;2022-11-14T02:54:43;7.72;;;5.10;;
47635;SDS011;33364;50.766;15.338;2022-11-14T02:57:09;7.85;;;5.15;;
47635;SDS011;33364;50.766;15.338;2022-11-14T02:59:34;9.75;;;6.15;;
47635;SDS011;33364;50.766;15.338;2022-11-14T03:02:00;10.23;;;5.97;;
47635;SDS011;33364;50.766;15.338;2022-11-14T03:04:26;9.95;;;5.82;;
47635;SDS011;33364;50.766;15.338;2022-11-14T03:06:51;8.80;;;5.90;;
47635;SDS011;33364;50.766;15.338;2022-11-14T03:09:17;9.50;;;5.97;;
47635;SDS011;33364;50.766;15.338;2022-11-14T03:11:43;8.70;;;5.68;;
47635;SDS011;33364;50.766;15.338;2022-11-14T03:14:08;18.73;;;9.45;;
47635;SDS011;33364;50.766;15.338;2022-11-14T03:16:34;7.60;;;5.50;;
47635;SDS011;33364;50.766;15.338;2022-11-14T03:19:00;7.97;;;4.60;;
47635;SDS011;33364;50.766;15.338;2022-11-14T03:21:26;7.47;;;5.35;;
47635;SDS011;33364;50.766;15.338;2022-11-14T03:23:52;12.13;;;6.35;;
47635;SDS011;33364;50.766;15.338;2022-11-14T03:26:17;14.98;;;7.28;;
47635;SDS011;33364;50.766;15.338;2022-11-14T03:28:43;9.45;;;5.63;;
47635;SDS011;33364;50.766;15.338;2022-11-14T03:31:09;9.48;;;5.65;;
47635;SDS011;33364;50.766;15.338;2022-11-14T03:33:36;9.05;;;5.38;;
47635;SDS011;33364;50.766;15.338;2022-11-14T03:36:02;8.10;;;4.97;;
47635;SDS011;33364;50.766;15.338;2022-11-14T03:38:29;10.88;;;6.07;;
47635;SDS011;33364;50.766;15.338;2022-11-14T03:40:56;9.77;;;6.45;;
47635;SDS011;33364;50.766;15.338;2022-11-14T03:43:23;9.27;;;5.95;;
47635;SDS011;33364;50.766;15.338;2022-11-14T03:45:48;7.53;;;5.28;;
47635;SDS011;33364;50.766;15.338;2022-11-14T03:48:14;8.20;;;4.82;;
47635;SDS011;33364;50.766;15.338;2022-11-14T03:50:41;9.32;;;5.93;;
47635;SDS011;33364;50.766;15.338;2022-11-14T03:53:08;12.40;;;6.40;;
47635;SDS011;33364;50.766;15.338;2022-11-14T03:55:35;13.38;;;6.03;;
47635;SDS011;33364;50.766;15.338;2022-11-14T03:58:02;8.60;;;6.20;;
47635;SDS011;33364;50.766;15.338;2022-11-14T04:00:27;10.23;;;6.20;;
47635;SDS011;33364;50.766;15.338;2022-11-14T04:02:54;8.82;;;5.75;;
47635;SDS011;33364;50.766;15.338;2022-11-14T04:05:20;12.60;;;6.28;;
47635;SDS011;33364;50.766;15.338;2022-11-14T04:07:46;10.15;;;5.90;;
47635;SDS011;33364;50.766;15.338;2022-11-14T04:10:12;8.20;;;5.30;;
47635;SDS011;33364;50.766;15.338;2022-11-14T04:12:38;9.38;;;5.72;;
47635;SDS011;33364;50.766;15.338;2022-11-14T04:15:03;8.05;;;5.70;;
47635;SDS011;33364;50.766;15.338;2022-11-14T04:17:29;10.43;;;5.57;;
47635;SDS011;33364;50.766;15.338;2022-11-14T04:19:55;9.65;;;5.95;;
47635;SDS011;33364;50.766;15.338;2022-11-14T04:22:20;7.90;;;5.43;;
47635;SDS011;33364;50.766;15.338;2022-11-14T04:24:46;11.63;;;6.38;;
47635;SDS011;33364;50.766;15.338;2022-11-14T04:27:12;10.07;;;6.15;;
47635;SDS011;33364;50.766;15.338;2022-11-14T04:29:37;11.57;;;7.22;;
47635;SDS011;33364;50.766;15.338;2022-11-14T04:32:03;8.50;;;5.50;;
47635;SDS011;33364;50.766;15.338;2022-11-14T04:34:28;9.38;;;5.60;;
47635;SDS011;33364;50.766;15.338;2022-11-14T04:36:54;11.68;;;5.75;;
47635;SDS011;33364;50.766;15.338;2022-11-14T04:39:20;9.27;;;6.40;;
47635;SDS011;33364;50.766;15.338;2022-11-14T04:41:45;12.95;;;6.72;;
47635;SDS011;33364;50.766;15.338;2022-11-14T04:44:11;8.20;;;5.18;;
47635;SDS011;33364;50.766;15.338;2022-11-14T04:46:36;9.98;;;6.35;;
47635;SDS011;33364;50.766;15.338;2022-11-14T04:49:02;9.35;;;5.90;;
47635;SDS011;33364;50.766;15.338;2022-11-14T04:51:28;12.05;;;6.07;;
47635;SDS011;33364;50.766;15.338;2022-11-14T04:53:54;8.18;;;5.13;;
47635;SDS011;33364;50.766;15.338;2022-11-14T04:56:19;8.23;;;5.65;;
47635;SDS011;33364;50.766;15.338;2022-11-14T04:58:47;10.63;;;6.00;;
47635;SDS011;33364;50.766;15.338;2022-11-14T05:01:14;9.80;;;5.45;;
47635;SDS011;33364;50.766;15.338;2022-11-14T05:03:39;11.40;;;6.85;;
47635;SDS011;33364;50.766;15.338;2022-11-14T05:06:05;9.43;;;5.57;;
47635;SDS011;33364;50.766;15.338;2022-11-14T05:08:31;12.23;;;7.78;;
47635;SDS011;33364;50.766;15.338;2022-11-14T05:10:58;14.77;;;6.88;;
47635;SDS011;33364;50.766;15.338;2022-11-14T05:13:23;9.57;;;6.78;;
47635;SDS011;33364;50.766;15.338;2022-11-14T05:15:49;9.63;;;6.00;;
47635;SDS011;33364;50.766;15.338;2022-11-14T05:18:14;12.13;;;6.03;;
47635;SDS011;33364;50.766;15.338;2022-11-14T05:20:40;10.07;;;5.85;;
47635;SDS011;33364;50.766;15.338;2022-11-14T05:23:05;10.35;;;6.65;;
47635;SDS011;33364;50.766;15.338;2022-11-14T05:25:31;10.88;;;6.75;;
47635;SDS011;33364;50.766;15.338;2022-11-14T05:27:57;15.15;;;7.30;;
47635;SDS011;33364;50.766;15.338;2022-11-14T05:30:22;14.77;;;8.57;;
47635;SDS011;33364;50.766;15.338;2022-11-14T05:32:50;17.48;;;9.48;;
47635;SDS011;33364;50.766;15.338;2022-11-14T05:35:16;15.68;;;9.48;;
47635;SDS011;33364;50.766;15.338;2022-11-14T05:37:42;12.70;;;7.55;;
47635;SDS011;33364;50.766;15.338;2022-11-14T05:40:07;13.88;;;8.02;;
47635;SDS011;33364;50.766;15.338;2022-11-14T05:42:33;10.98;;;6.63;;
47635;SDS011;33364;50.766;15.338;2022-11-14T05:44:59;11.55;;;7.50;;
47635;SDS011;33364;50.766;15.338;2022-11-14T05:47:25;16.42;;;8.95;;
47635;SDS011;33364;50.766;15.338;2022-11-14T05:49:50;14.13;;;8.45;;
47635;SDS011;33364;50.766;15.338;2022-11-14T05:52:16;11.00;;;6.32;;
47635;SDS011;33364;50.766;15.338;2022-11-14T05:54:41;10.35;;;7.28;;
47635;SDS011;33364;50.766;15.338;2022-11-14T05:57:07;19.23;;;12.18;;
47635;SDS011;33364;50.766;15.338;2022-11-14T05:59:33;14.13;;;8.98;;
47635;SDS011;33364;50.766;15.338;2022-11-14T06:01:58;12.02;;;8.32;;
47635;SDS011;33364;50.766;15.338;2022-11-14T06:04:24;14.50;;;9.07;;
47635;SDS011;33364;50.766;15.338;2022-11-14T06:06:50;14.82;;;8.48;;
47635;SDS011;33364;50.766;15.338;2022-11-14T06:09:16;10.23;;;6.80;;
47635;SDS011;33364;50.766;15.338;2022-11-14T06:11:41;12.48;;;7.55;;
47635;SDS011;33364;50.766;15.338;2022-11-14T06:14:07;12.32;;;7.93;;
47635;SDS011;33364;50.766;15.338;2022-11-14T06:16:33;15.85;;;10.02;;
47635;SDS011;33364;50.766;15.338;2022-11-14T06:18:58;14.05;;;7.65;;
47635;SDS011;33364;50.766;15.338;2022-11-14T06:21:24;14.13;;;8.00;;
47635;SDS011;33364;50.766;15.338;2022-11-14T06:23:51;15.43;;;9.05;;
47635;SDS011;33364;50.766;15.338;2022-11-14T06:26:24;12.98;;;8.30;;
47635;SDS011;33364;50.766;15.338;2022-11-14T06:28:51;13.93;;;7.90;;
47635;SDS011;33364;50.766;15.338;2022-11-14T06:31:18;12.95;;;8.07;;
47635;SDS011;33364;50.766;15.338;2022-11-14T06:33:45;19.25;;;12.55;;
47635;SDS011;33364;50.766;15.338;2022-11-14T06:36:11;18.65;;;11.55;;
47635;SDS011;33364;50.766;15.338;2022-11-14T06:38:38;19.45;;;12.57;;
47635;SDS011;33364;50.766;15.338;2022-11-14T06:41:05;14.55;;;10.07;;
47635;SDS011;33364;50.766;15.338;2022-11-14T06:43:37;21.63;;;12.05;;
47635;SDS011;33364;50.766;15.338;2022-11-14T06:46:05;19.92;;;12.20;;
47635;SDS011;33364;50.766;15.338;2022-11-14T06:48:32;20.13;;;11.82;;
47635;SDS011;33364;50.766;15.338;2022-11-14T06:50:58;25.75;;;15.02;;
47635;SDS011;33364;50.766;15.338;2022-11-14T06:53:26;25.65;;;13.85;;
47635;SDS011;33364;50.766;15.338;2022-11-14T06:55:53;30.25;;;16.27;;
47635;SDS011;33364;50.766;15.338;2022-11-14T06:58:19;30.45;;;16.00;;
47635;SDS011;33364;50.766;15.338;2022-11-14T07:00:44;24.80;;;15.27;;
47635;SDS011;33364;50.766;15.338;2022-11-14T07:03:10;27.00;;;15.23;;
47635;SDS011;33364;50.766;15.338;2022-11-14T07:05:35;22.52;;;13.18;;
47635;SDS011;33364;50.766;15.338;2022-11-14T07:08:01;23.05;;;13.48;;
47635;SDS011;33364;50.766;15.338;2022-11-14T07:10:27;30.10;;;16.27;;
47635;SDS011;33364;50.766;15.338;2022-11-14T07:12:52;25.00;;;14.52;;
47635;SDS011;33364;50.766;15.338;2022-11-14T07:15:18;27.58;;;15.02;;
47635;SDS011;33364;50.766;15.338;2022-11-14T07:17:44;30.13;;;18.13;;
47635;SDS011;33364;50.766;15.338;2022-11-14T07:20:09;35.08;;;19.40;;
47635;SDS011;33364;50.766;15.338;2022-11-14T07:22:35;38.95;;;22.63;;
47635;SDS011;33364;50.766;15.338;2022-11-14T07:25:01;25.40;;;15.52;;
47635;SDS011;33364;50.766;15.338;2022-11-14T07:27:26;25.38;;;15.23;;
47635;SDS011;33364;50.766;15.338;2022-11-14T07:29:52;17.30;;;11.40;;
47635;SDS011;33364;50.766;15.338;2022-11-14T07:32:17;18.05;;;11.05;;
47635;SDS011;33364;50.766;15.338;2022-11-14T07:34:43;37.97;;;20.80;;
47635;SDS011;33364;50.766;15.338;2022-11-14T07:37:09;26.27;;;15.38;;
47635;SDS011;33364;50.766;15.338;2022-11-14T07:39:34;30.48;;;17.45;;
47635;SDS011;33364;50.766;15.338;2022-11-14T07:42:00;25.25;;;15.10;;
47635;SDS011;33364;50.766;15.338;2022-11-14T07:44:25;23.23;;;14.80;;
47635;SDS011;33364;50.766;15.338;2022-11-14T07:46:51;26.42;;;15.88;;
47635;SDS011;33364;50.766;15.338;2022-11-14T07:49:17;26.27;;;16.23;;
47635;SDS011;33364;50.766;15.338;2022-11-14T07:51:42;19.92;;;11.27;;
47635;SDS011;33364;50.766;15.338;2022-11-14T07:54:11;19.95;;;12.38;;
47635;SDS011;33364;50.766;15.338;2022-11-14T07:56:37;16.65;;;10.07;;
47635;SDS011;33364;50.766;15.338;2022-11-14T07:59:03;21.20;;;13.02;;
47635;SDS011;33364;50.766;15.338;2022-11-14T08:01:28;20.63;;;12.23;;
47635;SDS011;33364;50.766;15.338;2022-11-14T08:03:54;20.90;;;12.32;;
47635;SDS011;33364;50.766;15.338;2022-11-14T08:06:20;21.63;;;12.23;;
47635;SDS011;33364;50.766;15.338;2022-11-14T08:08:45;24.33;;;14.85;;
47635;SDS011;33364;50.766;15.338;2022-11-14T08:11:11;26.30;;;15.05;;
47635;SDS011;33364;50.766;15.338;2022-11-14T08:13:37;21.85;;;13.30;;
47635;SDS011;33364;50.766;15.338;2022-11-14T08:16:06;22.63;;;13.73;;
47635;SDS011;33364;50.766;15.338;2022-11-14T08:18:33;22.15;;;12.65;;
47635;SDS011;33364;50.766;15.338;2022-11-14T08:20:58;17.38;;;12.38;;
47635;SDS011;33364;50.766;15.338;2022-11-14T08:23:28;21.20;;;12.75;;
47635;SDS011;33364;50.766;15.338;2022-11-14T08:25:53;20.33;;;12.63;;
47635;SDS011;33364;50.766;15.338;2022-11-14T08:28:19;22.50;;;13.30;;
47635;SDS011;33364;50.766;15.338;2022-11-14T08:30:44;29.90;;;17.15;;
47635;SDS011;33364;50.766;15.338;2022-11-14T08:33:10;25.65;;;16.27;;
47635;SDS011;33364;50.766;15.338;2022-11-14T08:35:36;29.95;;;18.20;;
47635;SDS011;33364;50.766;15.338;2022-11-14T08:38:02;28.02;;;19.10;;
47635;SDS011;33364;50.766;15.338;2022-11-14T08:40:27;25.48;;;15.20;;
47635;SDS011;33364;50.766;15.338;2022-11-14T08:42:57;25.00;;;15.35;;
47635;SDS011;33364;50.766;15.338;2022-11-14T08:45:24;22.23;;;14.60;;
47635;SDS011;33364;50.766;15.338;2022-11-14T08:47:50;25.08;;;15.27;;
47635;SDS011;33364;50.766;15.338;2022-11-14T08:50:16;27.70;;;16.83;;
47635;SDS011;33364;50.766;15.338;2022-11-14T08:52:42;39.70;;;24.00;;
47635;SDS011;33364;50.766;15.338;2022-11-14T08:55:08;19.02;;;12.40;;
47635;SDS011;33364;50.766;15.338;2022-11-14T08:57:33;20.40;;;13.65;;
47635;SDS011;33364;50.766;15.338;2022-11-14T08:59:59;31.20;;;20.52;;
47635;SDS011;33364;50.766;15.338;2022-11-14T09:02:25;24.95;;;15.85;;
47635;SDS011;33364;50.766;15.338;2022-11-14T09:04:50;16.73;;;11.55;;
47635;SDS011;33364;50.766;15.338;2022-11-14T09:07:16;38.42;;;25.00;;
47635;SDS011;33364;50.766;15.338;2022-11-14T09:09:41;24.80;;;14.73;;
47635;SDS011;33364;50.766;15.338;2022-11-14T09:12:07;20.35;;;14.63;;
47635;SDS011;33364;50.766;15.338;2022-11-14T09:14:33;21.33;;;14.10;;
47635;SDS011;33364;50.766;15.338;2022-11-14T09:16:59;20.58;;;12.95;;
47635;SDS011;33364;50.766;15.338;2022-11-14T09:19:24;23.52;;;15.65;;
47635;SDS011;33364;50.766;15.338;2022-11-14T09:21:50;19.10;;;12.38;;
47635;SDS011;33364;50.766;15.338;2022-11-14T09:24:15;21.63;;;13.25;;
47635;SDS011;33364;50.766;15.338;2022-11-14T09:26:41;20.58;;;12.73;;
47635;SDS011;33364;50.766;15.338;2022-11-14T09:29:07;22.63;;;14.68;;
47635;SDS011;33364;50.766;15.338;2022-11-14T09:31:33;24.00;;;13.80;;
47635;SDS011;33364;50.766;15.338;2022-11-14T09:33:58;22.33;;;14.93;;
47635;SDS011;33364;50.766;15.338;2022-11-14T09:36:24;19.38;;;13.25;;
47635;SDS011;33364;50.766;15.338;2022-11-14T09:38:50;18.98;;;12.98;;
47635;SDS011;33364;50.766;15.338;2022-11-14T09:41:23;21.60;;;12.77;;
47635;SDS011;33364;50.766;15.338;2022-11-14T09:47:06;22.65;;;13.88;;
47635;SDS011;33364;50.766;15.338;2022-11-14T09:49:40;17.33;;;12.77;;
47635;SDS011;33364;50.766;15.338;2022-11-14T09:52:14;16.95;;;11.45;;
47635;SDS011;33364;50.766;15.338;2022-11-14T09:54:51;21.13;;;12.73;;
47635;SDS011;33364;50.766;15.338;2022-11-14T09:57:22;18.67;;;12.73;;
47635;SDS011;33364;50.766;15.338;2022-11-14T09:59:49;19.27;;;12.68;;
47635;SDS011;33364;50.766;15.338;2022-11-14T10:10:58;18.85;;;12.45;;
47635;SDS011;33364;50.766;15.338;2022-11-14T10:13:34;16.70;;;11.80;;
47635;SDS011;33364;50.766;15.338;2022-11-14T10:19:12;15.48;;;11.60;;
47635;SDS011;33364;50.766;15.338;2022-11-14T10:21:53;18.25;;;12.70;;
47635;SDS011;33364;50.766;15.338;2022-11-14T10:24:45;18.27;;;12.98;;
47635;SDS011;33364;50.766;15.338;2022-11-14T10:27:17;18.40;;;12.48;;
47635;SDS011;33364;50.766;15.338;2022-11-14T10:35:18;20.35;;;13.50;;
47635;SDS011;33364;50.766;15.338;2022-11-14T10:40:33;20.88;;;14.40;;
47635;SDS011;33364;50.766;15.338;2022-11-14T10:48:46;41.92;;;28.83;;
47635;SDS011;33364;50.766;15.338;2022-11-14T10:56:58;20.55;;;13.82;;
47635;SDS011;33364;50.766;15.338;2022-11-14T10:59:24;21.58;;;14.43;;
47635;SDS011;33364;50.766;15.338;2022-11-14T11:01:56;26.15;;;18.70;;
47635;SDS011;33364;50.766;15.338;2022-11-14T11:04:35;23.67;;;16.45;;
47635;SDS011;33364;50.766;15.338;2022-11-14T11:09:41;26.10;;;16.40;;
47635;SDS011;33364;50.766;15.338;2022-11-14T11:15:18;24.88;;;16.27;;
47635;SDS011;33364;50.766;15.338;2022-11-14T11:18:03;24.08;;;14.68;;
47635;SDS011;33364;50.766;15.338;2022-11-14T11:20:39;18.48;;;13.23;;
47635;SDS011;33364;50.766;15.338;2022-11-14T11:23:15;19.15;;;13.82;;
47635;SDS011;33364;50.766;15.338;2022-11-14T11:25:44;20.80;;;14.68;;
47635;SDS011;33364;50.766;15.338;2022-11-14T11:30:40;21.25;;;13.70;;
47635;SDS011;33364;50.766;15.338;2022-11-14T11:36:00;18.58;;;12.52;;
47635;SDS011;33364;50.766;15.338;2022-11-14T11:38:29;20.40;;;13.70;;
47635;SDS011;33364;50.766;15.338;2022-11-14T11:41:39;18.60;;;14.07;;
47635;SDS011;33364;50.766;15.338;2022-11-14T11:44:00;18.27;;;12.52;;
47635;SDS011;33364;50.766;15.338;2022-11-14T11:46:54;17.27;;;12.15;;
47635;SDS011;33364;50.766;15.338;2022-11-14T11:51:54;16.77;;;12.73;;
47635;SDS011;33364;50.766;15.338;2022-11-14T11:54:23;17.95;;;13.27;;
47635;SDS011;33364;50.766;15.338;2022-11-14T11:56:55;17.70;;;12.85;;
47635;SDS011;33364;50.766;15.338;2022-11-14T11:59:28;20.05;;;13.32;;
47635;SDS011;33364;50.766;15.338;2022-11-14T12:01:59;19.00;;;13.43;;
47635;SDS011;33364;50.766;15.338;2022-11-14T12:04:28;18.40;;;12.35;;
47635;SDS011;33364;50.766;15.338;2022-11-14T12:06:58;19.00;;;13.05;;
47635;SDS011;33364;50.766;15.338;2022-11-14T12:09:35;17.52;;;12.98;;
47635;SDS011;33364;50.766;15.338;2022-11-14T12:12:04;20.98;;;13.57;;
47635;SDS011;33364;50.766;15.338;2022-11-14T12:14:43;28.80;;;16.67;;
47635;SDS011;33364;50.766;15.338;2022-11-14T12:17:28;29.08;;;17.50;;
47635;SDS011;33364;50.766;15.338;2022-11-14T12:23:05;25.35;;;16.55;;
47635;SDS011;33364;50.766;15.338;2022-11-14T12:25:48;25.05;;;15.65;;
47635;SDS011;33364;50.766;15.338;2022-11-14T12:28:23;21.30;;;15.13;;
47635;SDS011;33364;50.766;15.338;2022-11-14T12:31:00;21.50;;;15.02;;
47635;SDS011;33364;50.766;15.338;2022-11-14T12:33:33;18.35;;;12.40;;
47635;SDS011;33364;50.766;15.338;2022-11-14T12:36:03;21.67;;;14.45;;
47635;SDS011;33364;50.766;15.338;2022-11-14T12:41:34;20.15;;;15.00;;
47635;SDS011;33364;50.766;15.338;2022-11-14T12:44:20;26.85;;;18.85;;
47635;SDS011;33364;50.766;15.338;2022-11-14T12:49:36;20.88;;;14.85;;
47635;SDS011;33364;50.766;15.338;2022-11-14T12:52:06;20.50;;;14.82;;
47635;SDS011;33364;50.766;15.338;2022-11-14T13:00:37;20.80;;;13.77;;
47635;SDS011;33364;50.766;15.338;2022-11-14T13:09:31;47.35;;;30.00;;
47635;SDS011;33364;50.766;15.338;2022-11-14T13:15:23;37.15;;;25.10;;
47635;SDS011;33364;50.766;15.338;2022-11-14T13:21:02;22.02;;;15.10;;
47635;SDS011;33364;50.766;15.338;2022-11-14T13:23:59;69.57;;;39.53;;
47635;SDS011;33364;50.766;15.338;2022-11-14T13:28:54;19.98;;;14.93;;
47635;SDS011;33364;50.766;15.338;2022-11-14T13:31:20;40.40;;;26.30;;
47635;SDS011;33364;50.766;15.338;2022-11-14T13:33:50;21.73;;;14.30;;
47635;SDS011;33364;50.766;15.338;2022-11-14T13:45:00;34.53;;;23.35;;
47635;SDS011;33364;50.766;15.338;2022-11-14T13:48:12;29.92;;;17.88;;
47635;SDS011;33364;50.766;15.338;2022-11-14T13:50:59;53.67;;;22.02;;
47635;SDS011;33364;50.766;15.338;2022-11-14T13:53:29;30.58;;;17.40;;
47635;SDS011;33364;50.766;15.338;2022-11-14T14:04:00;18.25;;;12.55;;
47635;SDS011;33364;50.766;15.338;2022-11-14T14:09:39;29.25;;;16.65;;
47635;SDS011;33364;50.766;15.338;2022-11-14T14:12:24;206.10;;;81.72;;
47635;SDS011;33364;50.766;15.338;2022-11-14T14:20:44;24.40;;;15.50;;
47635;SDS011;33364;50.766;15.338;2022-11-14T14:31:37;30.48;;;19.13;;
47635;SDS011;33364;50.766;15.338;2022-11-14T14:34:23;59.17;;;29.83;;
47635;SDS011;33364;50.766;15.338;2022-11-14T14:36:53;73.00;;;35.30;;
47635;SDS011;33364;50.766;15.338;2022-11-14T14:39:24;59.75;;;30.02;;
47635;SDS011;33364;50.766;15.338;2022-11-14T14:41:54;114.35;;;51.65;;
47635;SDS011;33364;50.766;15.338;2022-11-14T14:46:56;106.65;;;50.45;;
47635;SDS011;33364;50.766;15.338;2022-11-14T14:49:56;31.15;;;20.00;;
47635;SDS011;33364;50.766;15.338;2022-11-14T14:52:19;23.90;;;16.77;;
47635;SDS011;33364;50.766;15.338;2022-11-14T14:54:54;23.27;;;15.45;;
47635;SDS011;33364;50.766;15.338;2022-11-14T14:57:21;26.73;;;17.40;;
47635;SDS011;33364;50.766;15.338;2022-11-14T14:59:46;38.53;;;23.27;;
47635;SDS011;33364;50.766;15.338;2022-11-14T15:02:26;26.58;;;17.63;;
47635;SDS011;33364;50.766;15.338;2022-11-14T15:04:53;25.77;;;18.25;;
47635;SDS011;33364;50.766;15.338;2022-11-14T15:07:21;75.70;;;38.10;;
47635;SDS011;33364;50.766;15.338;2022-11-14T15:09:56;44.42;;;25.10;;
47635;SDS011;33364;50.766;15.338;2022-11-14T15:12:25;23.50;;;16.45;;
47635;SDS011;33364;50.766;15.338;2022-11-14T15:14:53;28.63;;;18.70;;
47635;SDS011;33364;50.766;15.338;2022-11-14T15:17:23;26.40;;;18.27;;
47635;SDS011;33364;50.766;15.338;2022-11-14T15:19:51;27.33;;;17.17;;
47635;SDS011;33364;50.766;15.338;2022-11-14T15:24:43;24.80;;;18.63;;
47635;SDS011;33364;50.766;15.338;2022-11-14T15:27:27;23.08;;;16.50;;
47635;SDS011;33364;50.766;15.338;2022-11-14T15:29:56;32.78;;;22.83;;
47635;SDS011;33364;50.766;15.338;2022-11-14T15:32:25;37.70;;;25.77;;
47635;SDS011;33364;50.766;15.338;2022-11-14T15:40:38;32.10;;;21.25;;
47635;SDS011;33364;50.766;15.338;2022-11-14T15:48:59;33.83;;;21.10;;
47635;SDS011;33364;50.766;15.338;2022-11-14T15:51:42;42.30;;;25.25;;
47635;SDS011;33364;50.766;15.338;2022-11-14T15:56:57;27.17;;;18.03;;
47635;SDS011;33364;50.766;15.338;2022-11-14T15:59:24;38.67;;;25.55;;
47635;SDS011;33364;50.766;15.338;2022-11-14T16:01:52;42.05;;;25.83;;
47635;SDS011;33364;50.766;15.338;2022-11-14T16:04:23;33.70;;;22.23;;
47635;SDS011;33364;50.766;15.338;2022-11-14T16:06:54;34.28;;;19.67;;
47635;SDS011;33364;50.766;15.338;2022-11-14T16:09:20;31.70;;;21.42;;
47635;SDS011;33364;50.766;15.338;2022-11-14T16:11:45;33.20;;;21.55;;
47635;SDS011;33364;50.766;15.338;2022-11-14T16:14:12;33.80;;;21.77;;
47635;SDS011;33364;50.766;15.338;2022-11-14T16:16:37;33.35;;;21.23;;
47635;SDS011;33364;50.766;15.338;2022-11-14T16:19:04;31.70;;;21.50;;
47635;SDS011;33364;50.766;15.338;2022-11-14T16:21:30;26.60;;;17.88;;
47635;SDS011;33364;50.766;15.338;2022-11-14T16:23:56;27.25;;;17.75;;
47635;SDS011;33364;50.766;15.338;2022-11-14T16:26:22;29.42;;;20.70;;
47635;SDS011;33364;50.766;15.338;2022-11-14T16:28:50;30.23;;;19.77;;
47635;SDS011;33364;50.766;15.338;2022-11-14T16:31:16;24.98;;;18.23;;
47635;SDS011;33364;50.766;15.338;2022-11-14T16:33:42;29.00;;;18.27;;
47635;SDS011;33364;50.766;15.338;2022-11-14T16:36:09;28.05;;;18.45;;
47635;SDS011;33364;50.766;15.338;2022-11-14T16:38:36;25.45;;;18.00;;
47635;SDS011;33364;50.766;15.338;2022-11-14T16:41:06;26.63;;;17.85;;